MDT,Max TemperatureF,Mean TemperatureF,Min TemperatureF,Max Dew PointF,MeanDew PointF,Min DewpointF,Max Humidity, Mean Humidity, Min Humidity, Max Sea Level PressureIn, Mean Sea Level PressureIn, Min Sea Level PressureIn, Max VisibilityMiles, Mean VisibilityMiles, Min VisibilityMiles, Max Wind SpeedMPH, Mean Wind SpeedMPH, Max Gust SpeedMPH,PrecipitationIn, CloudCover, Events, WindDirDegrees
2013-5-1,41,34,26,25,19,12,80,59,31,30.56,30.37,30.15,10,10,10,16,9,22,0.00,7,,319
2013-5-2,57,42,26,23,18,14,74,41,21,30.59,30.47,30.31,10,10,10,15,7,22,0.00,0,,195
2013-5-3,60,46,33,36,24,12,71,39,20,30.31,30.18,30.11,10,10,10,15,5,21,0.00,4,,349
2013-5-4,48,44,39,43,39,36,93,86,71,30.24,30.21,30.17,10,10,5,15,9,18,0.26,8,,338
2013-5-5,59,48,37,39,36,30,100,65,36,30.22,30.13,30.05,10,10,10,13,3,18,0.00,5,,137
2013-5-6,68,54,39,36,34,30,81,51,24,30.06,29.99,29.91,10,10,10,10,5,,0.00,0,,150
2013-5-7,71,58,46,36,31,25,58,35,18,29.98,29.91,29.87,10,10,10,16,6,22,0.00,1,,357
2013-5-8,66,57,48,39,34,30,62,43,28,30.16,30.09,30.00,10,10,10,20,9,25,0.00,3,,359
2013-5-9,68,56,44,37,34,30,66,45,24,30.19,30.15,30.12,10,10,10,14,5,23,0.00,1,,290
2013-5-10,69,58,46,39,34,28,58,42,23,30.37,30.26,30.19,10,10,10,24,9,33,0.00,2,,307
2013-5-11,71,54,37,36,33,28,71,43,25,30.39,30.28,30.17,10,10,10,15,4,31,0.00,2,,140
2013-5-12,80,66,53,39,36,32,47,28,20,30.20,30.12,30.05,10,10,10,15,7,26,0.00,2,,253
2013-5-13,84,73,62,37,34,30,37,25,14,30.11,30.02,29.88,10,10,10,21,10,28,0.00,0,,231
2013-5-14,82,68,53,45,37,23,55,36,13,29.97,29.92,29.84,10,10,10,20,8,25,0.00,0,,4
2013-5-15,71,60,48,41,31,25,58,34,23,30.04,29.96,29.86,10,10,10,15,7,22,0.00,1,,3
2013-5-16,64,56,48,46,44,39,87,66,42,29.90,29.87,29.80,10,10,7,20,5,23,0.02,3,Thunderstorm,23
2013-5-17,57,52,48,52,47,45,94,85,67,29.91,29.88,29.83,10,10,9,15,4,22,0.09,5,,17
2013-5-18,51,48,44,46,45,43,100,88,76,29.96,29.92,29.89,10,10,5,15,5,18,0.80,7,,324
2013-5-19,50,48,46,46,44,41,100,89,76,30.07,29.98,29.93,10,10,10,22,6,30,0.34,8,,345
2013-5-20,57,52,46,45,41,37,87,72,48,30.15,30.11,30.05,10,10,10,23,12,30,0.01,7,,351
2013-5-21,62,50,39,39,33,27,87,52,26,30.14,30.02,29.90,10,10,10,10,5,21,0.00,0,,357
2013-5-22,60,50,39,50,42,37,94,71,51,29.92,29.88,29.82,10,10,9,13,7,16,0.09,2,Thunderstorm,20
2013-5-23,69,58,46,52,48,45,100,76,43,29.89,29.81,29.72,10,10,10,20,5,25,0.03,6,Thunderstorm,43
2013-5-24,69,58,48,48,30,19,94,38,19,29.98,29.91,29.78,10,10,4,23,9,34,0.01,1,Thunderstorm,225
2013-5-25,73,57,41,43,34,25,62,41,19,29.97,29.91,29.83,10,10,7,18,7,24,0.00,1,,302
2013-5-26,69,56,44,48,42,34,77,57,35,30.00,29.92,29.83,10,10,8,15,4,22,0.00,1,Thunderstorm,35
2013-5-27,64,57,50,46,36,28,77,46,26,29.93,29.85,29.80,10,10,10,23,10,34,0.00,2,Thunderstorm,272
2013-5-28,64,56,48,46,39,34,76,56,32,29.82,29.74,29.68,10,10,8,26,5,31,0.00,6,,273
2013-5-29,51,48,46,46,44,41,93,84,71,29.74,29.70,29.67,10,10,6,12,8,,0.11,7,,352
2013-5-30,57,50,44,45,39,28,100,67,36,29.85,29.74,29.66,10,10,10,18,5,37,0.01,6,,322
2013-5-31,57,50,44,41,32,27,87,49,36,30.25,29.99,29.85,10,10,10,22,11,32,0.00,8,,310